createdAt,value
2019-01-30T00:00:55.311Z,2.90
2019-01-30T00:03:22.904Z,3.13
2019-01-30T00:05:50.470Z,2.50
2019-01-30T00:08:18.032Z,2.70
2019-01-30T00:10:45.626Z,2.87
2019-01-30T00:13:13.975Z,3.57
2019-01-30T00:15:41.573Z,3.27
2019-01-30T00:18:10.213Z,2.70
2019-01-30T00:20:37.801Z,2.93
2019-01-30T00:23:05.397Z,3.50
2019-01-30T00:25:32.968Z,3.53
2019-01-30T00:28:00.565Z,3.10
2019-01-30T00:30:28.137Z,2.50
2019-01-30T00:32:55.709Z,2.97
2019-01-30T00:35:23.439Z,2.53
2019-01-30T00:37:50.995Z,3.60
2019-01-30T00:40:21.456Z,2.97
2019-01-30T00:42:49.039Z,2.70
2019-01-30T00:45:19.797Z,2.93
2019-01-30T00:47:47.400Z,2.53
2019-01-30T00:50:23.996Z,2.70
2019-01-30T00:52:51.591Z,2.80
2019-01-30T00:55:19.929Z,3.13
2019-01-30T00:57:47.495Z,2.70
2019-01-30T01:00:20.674Z,2.90
2019-01-30T01:02:48.244Z,2.83
2019-01-30T01:05:15.837Z,2.50
2019-01-30T01:07:44.171Z,2.60
2019-01-30T01:10:11.744Z,2.23
2019-01-30T01:12:39.345Z,2.60
2019-01-30T01:15:07.691Z,2.57
2019-01-30T01:17:35.337Z,2.73
2019-01-30T01:20:02.910Z,2.67
2019-01-30T01:22:30.475Z,2.30
2019-01-30T01:24:58.066Z,2.50
2019-01-30T01:27:26.403Z,2.70
2019-01-30T01:29:54.012Z,2.57
2019-01-30T01:32:22.360Z,2.30
2019-01-30T01:34:49.941Z,2.60
2019-01-30T01:37:17.531Z,2.70
2019-01-30T01:39:45.099Z,3.03
2019-01-30T01:42:12.753Z,2.43
2019-01-30T01:44:40.323Z,2.33
2019-01-30T01:47:07.897Z,2.40
2019-01-30T01:49:35.493Z,2.60
2019-01-30T01:52:03.071Z,2.33
2019-01-30T01:54:31.679Z,3.10
2019-01-30T01:56:59.254Z,2.40
2019-01-30T01:59:26.822Z,2.53
2019-01-30T02:01:54.413Z,2.60
2019-01-30T02:04:21.977Z,2.40
2019-01-30T02:06:49.588Z,2.20
2019-01-30T02:09:17.190Z,2.27
2019-01-30T02:11:44.757Z,2.93
2019-01-30T02:14:12.348Z,2.50
2019-01-30T02:16:40.679Z,2.87
2019-01-30T02:19:08.280Z,2.53
2019-01-30T02:21:35.851Z,2.50
2019-01-30T02:24:04.193Z,2.30
2019-01-30T02:26:31.806Z,2.57
2019-01-30T02:29:00.135Z,2.60
2019-01-30T02:31:27.747Z,2.60
2019-01-30T02:33:56.091Z,2.60
2019-01-30T02:36:23.658Z,2.63
2019-01-30T02:38:51.262Z,3.00
2019-01-30T02:41:18.843Z,2.90
2019-01-30T02:43:46.454Z,2.80
2019-01-30T02:46:14.022Z,2.63
2019-01-30T02:48:42.360Z,2.90
2019-01-30T02:51:09.956Z,3.07
2019-01-30T02:53:37.523Z,2.63
2019-01-30T02:56:05.126Z,2.73
2019-01-30T02:58:32.698Z,2.77
2019-01-30T03:01:00.267Z,2.83
2019-01-30T03:03:28.625Z,3.20
2019-01-30T03:05:56.185Z,2.97
2019-01-30T03:08:24.303Z,3.27
2019-01-30T03:10:51.880Z,2.97
2019-01-30T03:13:19.452Z,3.50
2019-01-30T03:15:47.806Z,3.67
2019-01-30T03:18:15.377Z,3.73
2019-01-30T03:20:42.969Z,3.63
2019-01-30T03:23:10.538Z,4.97
2019-01-30T03:25:38.108Z,3.77
2019-01-30T03:28:05.718Z,3.60
2019-01-30T03:30:33.301Z,3.73
2019-01-30T03:33:01.672Z,3.87
2019-01-30T03:35:29.243Z,3.43
2019-01-30T03:37:57.575Z,4.13
2019-01-30T03:40:27.100Z,4.00
2019-01-30T03:42:54.674Z,3.87
2019-01-30T03:45:25.287Z,4.17
2019-01-30T03:47:52.861Z,4.07
2019-01-30T03:50:20.438Z,4.63
2019-01-30T03:52:48.012Z,4.37
2019-01-30T03:55:16.352Z,4.17
2019-01-30T03:57:43.956Z,3.57
2019-01-30T04:00:27.203Z,5.00
2019-01-30T04:02:55.149Z,3.87
2019-01-30T04:05:22.684Z,3.80
2019-01-30T04:07:50.249Z,4.37
2019-01-30T04:10:20.593Z,4.40
2019-01-30T04:12:48.944Z,4.63
2019-01-30T04:15:16.535Z,4.73
2019-01-30T04:17:44.871Z,4.43
2019-01-30T04:20:15.178Z,4.57
2019-01-30T04:22:42.771Z,4.80
2019-01-30T04:25:10.350Z,4.33
2019-01-30T04:27:37.958Z,7.20
2019-01-30T04:30:05.526Z,5.77
2019-01-30T04:32:33.083Z,5.20
2019-01-30T04:35:00.683Z,5.60
2019-01-30T04:37:28.258Z,5.23
2019-01-30T04:39:55.894Z,5.10
2019-01-30T04:42:23.467Z,5.27
2019-01-30T04:44:51.041Z,5.10
2019-01-30T04:47:18.645Z,4.43
2019-01-30T04:49:46.214Z,4.93
2019-01-30T04:52:13.825Z,5.13
2019-01-30T04:54:41.386Z,4.37
2019-01-30T04:57:08.962Z,7.57
2019-01-30T04:59:37.322Z,6.37
2019-01-30T05:02:04.904Z,5.43
2019-01-30T05:04:33.266Z,7.40
2019-01-30T05:07:00.834Z,5.60
2019-01-30T05:09:28.407Z,4.73
2019-01-30T05:11:56.777Z,4.80
2019-01-30T05:14:25.114Z,4.50
2019-01-30T05:16:53.086Z,4.70
2019-01-30T05:19:20.651Z,5.60
2019-01-30T05:21:48.520Z,5.00
2019-01-30T05:24:16.111Z,4.93
2019-01-30T05:26:43.675Z,5.53
2019-01-30T05:29:11.283Z,7.60
2019-01-30T05:31:38.847Z,5.80
2019-01-30T05:34:06.418Z,5.40
2019-01-30T05:36:35.094Z,5.63
2019-01-30T05:39:02.655Z,5.37
2019-01-30T05:41:30.255Z,5.33
2019-01-30T05:43:57.819Z,5.30
2019-01-30T05:46:25.402Z,5.10
2019-01-30T05:48:52.987Z,5.30
2019-01-30T05:51:20.562Z,5.47
2019-01-30T05:53:48.166Z,5.17
2019-01-30T05:56:15.732Z,5.33
2019-01-30T05:58:43.313Z,5.67
2019-01-30T06:01:11.686Z,7.90
2019-01-30T06:03:40.018Z,6.20
2019-01-30T06:06:07.617Z,8.35
2019-01-30T06:08:35.186Z,5.77
2019-01-30T06:11:02.754Z,5.67
2019-01-30T06:13:31.111Z,5.50
2019-01-30T06:15:58.704Z,4.53
2019-01-30T06:18:27.066Z,8.90
2019-01-30T06:20:54.643Z,6.40
2019-01-30T06:23:22.998Z,5.37
2019-01-30T06:25:50.594Z,4.73
2019-01-30T06:28:18.914Z,5.07
2019-01-30T06:30:46.528Z,4.40
2019-01-30T06:33:14.860Z,4.33
2019-01-30T06:35:42.435Z,4.37
2019-01-30T06:38:10.019Z,5.07
2019-01-30T06:40:38.967Z,5.63
2019-01-30T06:43:07.902Z,5.10
2019-01-30T06:45:35.477Z,5.17
2019-01-30T06:48:03.816Z,5.07
2019-01-30T06:50:31.414Z,5.80
2019-01-30T06:52:59.754Z,5.17
2019-01-30T06:55:27.714Z,5.77
2019-01-30T06:57:55.302Z,5.50
2019-01-30T07:00:22.870Z,5.70
2019-01-30T07:02:50.476Z,6.10
2019-01-30T07:05:18.053Z,5.77
2019-01-30T07:07:45.663Z,5.67
2019-01-30T07:10:13.249Z,5.87
2019-01-30T07:12:40.813Z,6.43
2019-01-30T07:15:08.426Z,6.50
2019-01-30T07:17:36.003Z,6.87
2019-01-30T07:20:03.619Z,6.13
2019-01-30T07:22:31.193Z,6.47
2019-01-30T07:24:58.770Z,7.67
2019-01-30T07:27:26.378Z,6.50
2019-01-30T07:29:53.952Z,10.00
2019-01-30T07:32:21.573Z,10.52
2019-01-30T07:34:49.187Z,10.95
2019-01-30T07:37:16.763Z,10.95
2019-01-30T07:39:44.735Z,8.27
2019-01-30T07:42:12.307Z,6.20
2019-01-30T07:44:50.254Z,6.73
2019-01-30T07:47:07.524Z,10.27
2019-01-30T07:49:35.095Z,8.00
2019-01-30T07:52:02.691Z,7.40
2019-01-30T07:54:31.035Z,10.13
2019-01-30T07:56:58.681Z,7.53
2019-01-30T07:59:26.264Z,7.00
2019-01-30T08:01:53.842Z,6.93
2019-01-30T08:04:21.441Z,6.43
2019-01-30T08:06:49.011Z,7.07
2019-01-30T08:09:16.635Z,7.57
2019-01-30T08:11:44.997Z,6.53
2019-01-30T08:14:12.579Z,6.77
2019-01-30T08:16:40.960Z,10.97
2019-01-30T08:19:09.313Z,7.87
2019-01-30T08:21:36.963Z,7.50
2019-01-30T08:24:04.979Z,7.23
2019-01-30T08:26:32.213Z,8.00
2019-01-30T08:29:00.216Z,7.17
2019-01-30T08:31:27.387Z,10.63
2019-01-30T08:33:54.904Z,8.13
2019-01-30T08:36:22.479Z,7.70
2019-01-30T08:38:50.824Z,7.10
2019-01-30T08:41:18.419Z,6.70
2019-01-30T08:43:46.763Z,7.40
2019-01-30T08:46:14.842Z,7.13
2019-01-30T08:48:42.417Z,7.07
2019-01-30T08:51:10.003Z,7.97
2019-01-30T08:53:37.602Z,7.73
2019-01-30T08:56:05.178Z,6.57
2019-01-30T08:58:32.796Z,7.50
2019-01-30T09:01:00.366Z,7.47
2019-01-30T09:03:27.940Z,7.17
2019-01-30T09:05:55.535Z,7.90
2019-01-30T09:08:23.489Z,7.57
2019-01-30T09:10:51.089Z,7.20
2019-01-30T09:13:18.669Z,6.87
2019-01-30T09:15:46.257Z,7.27
2019-01-30T09:18:13.880Z,8.07
2019-01-30T09:20:42.212Z,8.60
2019-01-30T09:23:09.835Z,6.73
2019-01-30T09:25:37.403Z,7.90
2019-01-30T09:28:04.971Z,7.03
2019-01-30T09:30:32.583Z,8.00
2019-01-30T09:33:00.157Z,8.23
2019-01-30T09:35:27.838Z,9.20
2019-01-30T09:37:56.202Z,9.63
2019-01-30T09:40:24.542Z,9.60
2019-01-30T09:42:52.181Z,10.13
2019-01-30T09:45:19.756Z,9.53
2019-01-30T09:47:47.429Z,9.17
2019-01-30T09:50:14.987Z,8.90
2019-01-30T09:52:42.594Z,9.27
2019-01-30T09:55:10.172Z,9.17
2019-01-30T09:57:37.749Z,9.43
2019-01-30T10:00:05.362Z,8.87
2019-01-30T10:02:32.933Z,8.33
2019-01-30T10:05:00.526Z,12.17
2019-01-30T10:07:28.131Z,12.77
2019-01-30T10:09:55.708Z,12.47
2019-01-30T10:12:23.365Z,8.80
2019-01-30T10:14:50.905Z,9.43
2019-01-30T10:17:18.487Z,8.47
2019-01-30T10:19:46.093Z,7.70
2019-01-30T10:22:13.674Z,7.33
2019-01-30T10:24:41.650Z,7.30
2019-01-30T10:27:09.222Z,7.47
2019-01-30T10:29:36.793Z,7.97
2019-01-30T10:32:04.487Z,7.33
2019-01-30T10:34:32.734Z,10.50
2019-01-30T10:37:00.366Z,7.60
2019-01-30T10:39:28.257Z,8.33
2019-01-30T10:41:55.837Z,7.50
2019-01-30T10:44:23.430Z,6.43
2019-01-30T10:46:51.770Z,6.70
2019-01-30T10:49:19.386Z,6.63
2019-01-30T10:51:46.956Z,8.57
2019-01-30T10:54:14.543Z,6.80
2019-01-30T10:56:42.120Z,5.63
2019-01-30T10:59:09.708Z,6.47
2019-01-30T11:01:38.089Z,8.20
2019-01-30T11:04:05.661Z,7.03
2019-01-30T11:06:34.007Z,6.40
2019-01-30T11:09:01.613Z,6.40
2019-01-30T11:11:29.188Z,6.40
2019-01-30T11:13:56.817Z,6.47
2019-01-30T11:16:24.383Z,6.17
2019-01-30T11:18:51.951Z,6.50
2019-01-30T11:21:19.670Z,6.53
2019-01-30T11:23:47.125Z,6.57
2019-01-30T11:26:14.733Z,6.90
2019-01-30T11:28:43.083Z,6.70
2019-01-30T11:31:10.669Z,6.93
2019-01-30T11:33:39.045Z,7.57
2019-01-30T11:36:07.384Z,7.80
2019-01-30T11:38:35.288Z,8.10
2019-01-30T11:41:02.860Z,6.83
2019-01-30T11:43:31.201Z,7.53
2019-01-30T11:45:58.810Z,6.73
2019-01-30T11:48:27.960Z,8.67
2019-01-30T11:50:55.561Z,7.23
2019-01-30T11:53:23.899Z,6.80
2019-01-30T11:55:51.469Z,7.53
2019-01-30T11:58:19.070Z,7.10
2019-01-30T12:00:46.675Z,6.67
2019-01-30T12:03:14.239Z,8.00
2019-01-30T12:05:41.801Z,6.80
2019-01-30T12:08:09.387Z,5.93
2019-01-30T12:10:36.992Z,5.53
2019-01-30T12:13:04.560Z,5.40
2019-01-30T12:15:32.172Z,5.53
2019-01-30T12:17:59.738Z,7.40
2019-01-30T12:20:27.308Z,5.07
2019-01-30T12:22:54.912Z,5.00
2019-01-30T12:25:22.534Z,4.50
2019-01-30T12:27:51.016Z,4.50
2019-01-30T12:30:20.096Z,3.87
2019-01-30T12:32:47.988Z,4.13
2019-01-30T12:35:15.580Z,4.60
2019-01-30T12:37:43.154Z,4.83
2019-01-30T12:40:10.796Z,4.53
2019-01-30T12:42:38.364Z,4.20
2019-01-30T12:45:06.358Z,3.97
2019-01-30T12:47:33.967Z,4.43
2019-01-30T12:50:02.308Z,4.43
2019-01-30T12:52:30.283Z,4.60
2019-01-30T12:54:57.865Z,4.63
2019-01-30T12:57:25.440Z,4.10
2019-01-30T12:59:53.032Z,5.10
2019-01-30T13:02:20.620Z,3.90
2019-01-30T13:04:48.228Z,5.00
2019-01-30T13:07:16.556Z,5.53
2019-01-30T13:09:44.236Z,4.73
2019-01-30T13:12:11.763Z,5.37
2019-01-30T13:14:39.336Z,7.47
2019-01-30T13:17:06.937Z,5.63
2019-01-30T13:19:34.516Z,6.33
2019-01-30T13:22:02.085Z,7.10
2019-01-30T13:24:30.123Z,7.93
2019-01-30T13:26:57.688Z,5.60
2019-01-30T13:29:25.263Z,5.47
2019-01-30T13:31:53.654Z,5.30
2019-01-30T13:34:21.234Z,5.77
2019-01-30T13:36:48.810Z,4.80
2019-01-30T13:39:16.451Z,4.50
2019-01-30T13:41:44.566Z,4.67
2019-01-30T13:44:12.140Z,6.20
2019-01-30T13:46:39.765Z,4.87
2019-01-30T13:49:07.336Z,4.60
2019-01-30T13:51:34.909Z,4.80
2019-01-30T13:54:02.995Z,4.70
2019-01-30T13:56:33.371Z,4.90
2019-01-30T13:59:00.913Z,5.20
2019-01-30T14:01:29.297Z,4.57
2019-01-30T14:03:57.661Z,4.33
2019-01-30T14:06:25.254Z,5.43
2019-01-30T14:08:52.862Z,4.70
2019-01-30T14:11:20.453Z,4.90
2019-01-30T14:13:48.074Z,5.60
2019-01-30T14:16:15.717Z,8.87
2019-01-30T14:18:43.331Z,8.67
2019-01-30T14:21:10.875Z,4.13
2019-01-30T14:23:38.860Z,6.47
2019-01-30T14:26:06.455Z,13.33
2019-01-30T14:28:34.802Z,5.00
2019-01-30T14:31:02.482Z,7.93
2019-01-30T14:33:30.060Z,14.07
2019-01-30T14:35:57.628Z,5.10
2019-01-30T14:38:25.260Z,4.03
2019-01-30T14:40:53.895Z,4.90
2019-01-30T14:43:22.197Z,4.40
2019-01-30T14:45:49.879Z,7.10
2019-01-30T14:48:17.489Z,4.27
2019-01-30T14:50:45.051Z,5.30
2019-01-30T14:53:12.701Z,3.90
2019-01-30T14:55:40.249Z,5.03
2019-01-30T14:58:07.849Z,6.20
2019-01-30T15:00:35.430Z,4.40
2019-01-30T15:03:03.010Z,3.57
2019-01-30T15:05:31.815Z,3.93
2019-01-30T15:08:00.064Z,3.40
2019-01-30T15:10:27.637Z,3.40
2019-01-30T15:12:56.110Z,3.27
2019-01-30T15:15:23.729Z,2.77
2019-01-30T15:17:51.264Z,4.50
2019-01-30T15:20:18.924Z,5.03
2019-01-30T15:22:46.472Z,3.60
2019-01-30T15:25:14.043Z,3.63
2019-01-30T15:27:41.674Z,3.23
2019-01-30T15:30:09.249Z,4.70
2019-01-30T15:32:36.814Z,3.07
2019-01-30T15:35:04.439Z,5.80
2019-01-30T15:37:32.011Z,9.63
2019-01-30T15:39:59.581Z,3.90
2019-01-30T15:42:27.195Z,4.80
2019-01-30T15:44:55.532Z,4.03
2019-01-30T15:47:23.215Z,4.80
2019-01-30T15:49:50.721Z,6.80
2019-01-30T15:52:18.294Z,7.67
2019-01-30T15:54:45.868Z,6.57
2019-01-30T15:57:13.584Z,6.43
2019-01-30T15:59:41.260Z,5.30
2019-01-30T16:02:08.863Z,6.83
2019-01-30T16:04:37.310Z,5.57
2019-01-30T16:07:04.879Z,5.70
2019-01-30T16:09:32.448Z,6.03
2019-01-30T16:12:00.067Z,4.87
2019-01-30T16:14:27.637Z,4.50
2019-01-30T16:16:55.228Z,4.53
2019-01-30T16:19:23.131Z,4.70
2019-01-30T16:21:50.707Z,4.60
2019-01-30T16:24:18.279Z,4.80
2019-01-30T16:26:47.360Z,4.53
2019-01-30T16:29:14.926Z,4.70
2019-01-30T16:31:42.513Z,6.47
2019-01-30T16:34:10.898Z,6.30
2019-01-30T16:36:38.478Z,5.70
2019-01-30T16:39:06.045Z,4.60
2019-01-30T16:41:33.663Z,3.70
2019-01-30T16:44:02.003Z,3.27
2019-01-30T16:46:29.575Z,3.47
2019-01-30T16:48:57.235Z,5.30
2019-01-30T16:51:24.799Z,3.30
2019-01-30T16:53:52.658Z,3.90
2019-01-30T16:56:20.372Z,4.53
2019-01-30T16:58:48.714Z,3.30
2019-01-30T17:01:16.282Z,2.87
2019-01-30T17:03:43.901Z,2.23
2019-01-30T17:06:11.468Z,2.40
2019-01-30T17:08:40.248Z,2.63
2019-01-30T17:11:06.666Z,2.70
2019-01-30T17:13:34.246Z,2.30
2019-01-30T17:16:01.885Z,2.40
2019-01-30T17:18:29.501Z,1.90
2019-01-30T17:20:57.079Z,3.35
2019-01-30T17:23:24.639Z,2.50
2019-01-30T17:25:52.280Z,3.80
2019-01-30T17:28:19.861Z,2.90
2019-01-30T17:30:47.440Z,1.93
2019-01-30T17:33:15.634Z,1.50
2019-01-30T17:35:43.967Z,3.30
2019-01-30T17:38:11.538Z,1.60
2019-01-30T17:40:39.213Z,1.90
2019-01-30T17:43:06.784Z,1.83
2019-01-30T17:45:35.123Z,1.73
2019-01-30T17:48:02.723Z,1.73
2019-01-30T17:50:31.061Z,2.10
2019-01-30T17:52:58.733Z,1.80
2019-01-30T17:55:26.681Z,2.03
2019-01-30T17:57:53.874Z,2.90
2019-01-30T18:00:33.098Z,2.17
2019-01-30T18:03:00.707Z,2.83
2019-01-30T18:05:28.242Z,1.97
2019-01-30T18:07:55.859Z,1.90
2019-01-30T18:10:23.447Z,3.10
2019-01-30T18:12:51.036Z,3.13
2019-01-30T18:15:18.652Z,3.90
2019-01-30T18:17:46.214Z,4.20
2019-01-30T18:20:16.237Z,4.23
2019-01-30T18:22:44.613Z,4.10
2019-01-30T18:25:14.353Z,3.70
2019-01-30T18:27:41.925Z,3.40
2019-01-30T18:30:12.369Z,4.10
2019-01-30T18:32:40.711Z,4.30
2019-01-30T18:35:08.299Z,3.57
2019-01-30T18:37:35.896Z,5.13
2019-01-30T18:40:03.471Z,5.97
2019-01-30T18:42:31.576Z,7.12
2019-01-30T18:44:59.161Z,5.10
2019-01-30T18:47:27.497Z,3.50
2019-01-30T18:49:56.411Z,2.90
2019-01-30T18:52:23.996Z,3.70
2019-01-30T18:54:52.331Z,5.07
2019-01-30T18:57:20.605Z,4.30
2019-01-30T18:59:48.201Z,4.07
2019-01-30T19:02:15.777Z,4.47
2019-01-30T19:04:44.139Z,5.00
2019-01-30T19:07:11.718Z,4.53
2019-01-30T19:09:40.107Z,4.47
2019-01-30T19:12:08.450Z,4.20
2019-01-30T19:14:36.027Z,3.40
2019-01-30T19:17:03.627Z,3.87
2019-01-30T19:19:31.219Z,4.40
2019-01-30T19:21:59.095Z,5.63
2019-01-30T19:24:26.662Z,8.73
2019-01-30T19:26:54.233Z,7.60
2019-01-30T19:29:21.836Z,6.93
2019-01-30T19:31:49.414Z,6.93
2019-01-30T19:34:17.037Z,6.17
2019-01-30T19:36:45.382Z,5.83
2019-01-30T19:39:12.954Z,5.13
2019-01-30T19:41:40.553Z,5.10
2019-01-30T19:44:11.052Z,5.17
2019-01-30T19:46:35.765Z,5.43
2019-01-30T19:49:04.130Z,5.40
2019-01-30T19:51:31.707Z,5.40
2019-01-30T19:54:00.097Z,5.63
2019-01-30T19:56:29.230Z,5.40
2019-01-30T19:58:57.432Z,5.70
2019-01-30T20:01:35.687Z,6.13
2019-01-30T20:03:52.565Z,6.50
2019-01-30T20:06:20.169Z,6.33
2019-01-30T20:08:47.764Z,8.03
2019-01-30T20:11:15.408Z,6.27
2019-01-30T20:13:42.989Z,6.50
2019-01-30T20:16:10.665Z,8.50
2019-01-30T20:18:38.239Z,9.60
2019-01-30T20:21:05.814Z,10.47
2019-01-30T20:23:34.207Z,7.73
2019-01-30T20:26:02.561Z,6.73
2019-01-30T20:28:30.920Z,8.70
2019-01-30T20:31:01.219Z,8.27
2019-01-30T20:33:26.878Z,11.33
2019-01-30T20:35:54.466Z,13.25
2019-01-30T20:38:22.811Z,12.25
2019-01-30T20:40:50.681Z,9.87
2019-01-30T20:43:18.265Z,11.82
2019-01-30T20:45:45.855Z,9.57
2019-01-30T20:48:13.444Z,12.20
2019-01-30T20:50:41.025Z,9.17
2019-01-30T20:53:08.639Z,8.27
2019-01-30T20:55:36.217Z,11.35
2019-01-30T20:58:03.783Z,7.17
2019-01-30T21:00:31.520Z,7.23
2019-01-30T21:02:59.058Z,7.90
2019-01-30T21:05:26.729Z,7.63
2019-01-30T21:07:55.104Z,7.57
2019-01-30T21:10:26.250Z,8.07
2019-01-30T21:12:54.514Z,8.53
2019-01-30T21:15:22.086Z,9.60
2019-01-30T21:17:49.710Z,11.30
2019-01-30T21:20:17.279Z,11.23
2019-01-30T21:22:44.854Z,9.20
2019-01-30T21:25:12.456Z,9.47
2019-01-30T21:27:40.082Z,10.07
2019-01-30T21:30:10.813Z,9.73
2019-01-30T21:32:38.382Z,9.70
2019-01-30T21:35:05.947Z,9.87
2019-01-30T21:37:33.539Z,9.67
2019-01-30T21:40:01.117Z,9.20
2019-01-30T21:42:28.725Z,9.60
2019-01-30T21:44:56.301Z,15.00
2019-01-30T21:47:24.642Z,17.97
2019-01-30T21:49:52.239Z,16.73
2019-01-30T21:52:19.816Z,16.60
2019-01-30T21:54:48.187Z,14.43
2019-01-30T21:57:16.537Z,14.57
2019-01-30T21:59:44.104Z,16.80
2019-01-30T22:02:11.703Z,11.90
2019-01-30T22:04:39.282Z,10.23
2019-01-30T22:07:06.891Z,25.27
2019-01-30T22:09:34.520Z,9.83
2019-01-30T22:12:02.067Z,9.63
2019-01-30T22:14:29.660Z,9.20
2019-01-30T22:16:57.238Z,10.17
2019-01-30T22:19:25.712Z,10.10
2019-01-30T22:21:53.286Z,12.98
2019-01-30T22:24:20.865Z,10.73
2019-01-30T22:26:49.228Z,14.07
2019-01-30T22:29:16.791Z,10.67
2019-01-30T22:31:44.400Z,9.47
2019-01-30T22:34:13.389Z,9.40
2019-01-30T22:36:39.546Z,9.53
2019-01-30T22:39:07.140Z,9.73
2019-01-30T22:41:34.711Z,9.10
2019-01-30T22:44:03.979Z,9.40
2019-01-30T22:46:31.554Z,10.37
2019-01-30T22:48:59.145Z,10.13
2019-01-30T22:51:26.741Z,14.57
2019-01-30T22:53:54.625Z,11.53
2019-01-30T22:56:22.231Z,11.27
2019-01-30T22:58:50.576Z,10.00
2019-01-30T23:01:18.157Z,10.47
2019-01-30T23:04:07.368Z,9.67
2019-01-30T23:06:53.509Z,9.17
2019-01-30T23:09:36.110Z,9.53
2019-01-30T23:12:21.765Z,7.93
2019-01-30T23:14:54.844Z,14.18
2019-01-30T23:17:22.423Z,10.90
2019-01-30T23:19:50.031Z,9.70
2019-01-30T23:22:17.607Z,9.00
2019-01-30T23:24:54.582Z,9.13
2019-01-30T23:27:37.325Z,9.97
2019-01-30T23:30:16.959Z,9.10
2019-01-30T23:33:06.411Z,9.80
2019-01-30T23:35:40.046Z,10.27
2019-01-30T23:38:10.800Z,9.93
2019-01-30T23:40:41.358Z,10.20
2019-01-30T23:43:14.390Z,10.63
2019-01-30T23:45:57.805Z,10.70
2019-01-30T23:48:28.069Z,11.23
2019-01-30T23:50:55.651Z,10.90
2019-01-30T23:53:51.382Z,12.10
2019-01-30T23:56:37.035Z,10.63
2019-01-30T23:59:04.729Z,12.10
